Time;durP1;ratioP1;P1;durP2;ratioP2;P2;SDS_P1;SDS_P2;PMS_P1;PMS_P2;Temp;Humidity;BMP_temperature;BMP_pressure;BME280_temperature;BME280_humidity;BME280_pressure;Samples;Min_cycle;Max_cycle;Signal;HPM_P1;HPM_P2
2022/11/27 00:02:03;;;;;;;135.50;59.30;;;;;;;;;;6199840;28;20053;-72
2022/11/27 00:05:04;;;;;;;111.90;49.07;;;;;;;;;;6200086;28;20027;-72
2022/11/27 00:08:04;;;;;;;103.40;41.10;;;;;;;;;;6196304;28;20058;-72
2022/11/27 00:11:08;;;;;;;98.67;39.23;;;;;;;;;;6198849;28;20125;-72
2022/11/27 00:14:13;;;;;;;106.72;42.42;;;;;;;;;;6195670;28;20033;-73
2022/11/27 00:17:13;;;;;;;93.13;39.13;;;;;;;;;;6192868;28;20025;-72
2022/11/27 00:20:13;;;;;;;97.90;42.88;;;;;;;;;;6198968;28;20364;-72
2022/11/27 00:23:13;;;;;;;82.80;40.80;;;;;;;;;;6198931;28;20072;-72
2022/11/27 00:26:13;;;;;;;89.65;39.13;;;;;;;;;;6199033;28;20105;-72
2022/11/27 00:29:14;;;;;;;79.03;34.15;;;;;;;;;;6198184;28;20049;-73
2022/11/27 00:32:14;;;;;;;83.80;32.97;;;;;;;;;;6198574;28;20014;-72
2022/11/27 00:35:14;;;;;;;84.50;33.53;;;;;;;;;;6196929;28;20024;-72
2022/11/27 00:38:14;;;;;;;76.27;31.83;;;;;;;;;;6198065;28;20397;-72
2022/11/27 00:41:18;;;;;;;84.20;32.13;;;;;;;;;;6197587;28;20019;-72
2022/11/27 00:44:18;;;;;;;83.47;31.60;;;;;;;;;;6198861;28;20477;-73
2022/11/27 00:47:18;;;;;;;75.17;30.50;;;;;;;;;;6198213;28;20022;-72
2022/11/27 00:50:19;;;;;;;74.38;33.65;;;;;;;;;;6198446;28;20046;-72
2022/11/27 00:53:19;;;;;;;69.83;30.43;;;;;;;;;;6198494;28;20029;-72
2022/11/27 00:56:21;;;;;;;71.07;31.07;;;;;;;;;;6198079;28;20468;-72
2022/11/27 00:59:21;;;;;;;72.90;29.25;;;;;;;;;;6197719;28;20042;-73
2022/11/27 01:02:21;;;;;;;86.55;36.90;;;;;;;;;;6198360;28;20460;-73
2022/11/27 01:05:22;;;;;;;98.25;39.33;;;;;;;;;;6198484;28;20025;-73
2022/11/27 01:08:22;;;;;;;68.57;28.97;;;;;;;;;;6197761;28;20133;-72
2022/11/27 01:11:24;;;;;;;85.67;31.40;;;;;;;;;;6197579;28;20462;-72
2022/11/27 01:14:25;;;;;;;71.28;31.23;;;;;;;;;;6197956;28;20471;-72
2022/11/27 01:17:25;;;;;;;78.72;30.05;;;;;;;;;;6197116;28;20022;-72
2022/11/27 01:20:25;;;;;;;73.93;31.53;;;;;;;;;;6197109;28;20100;-72
2022/11/27 01:23:25;;;;;;;66.18;31.33;;;;;;;;;;6197708;28;20014;-73
2022/11/27 01:26:26;;;;;;;70.28;27.48;;;;;;;;;;6197483;28;20033;-72
2022/11/27 01:29:26;;;;;;;78.17;29.80;;;;;;;;;;6197057;28;20026;-73
2022/11/27 01:32:26;;;;;;;81.80;34.30;;;;;;;;;;6197708;28;20014;-72
2022/11/27 01:35:26;;;;;;;86.37;31.10;;;;;;;;;;6197071;28;20018;-72
2022/11/27 01:38:27;;;;;;;85.22;35.28;;;;;;;;;;6196542;28;20014;-72
2022/11/27 01:41:29;;;;;;;61.97;25.33;;;;;;;;;;6197168;28;20010;-72
2022/11/27 01:44:29;;;;;;;75.72;29.10;;;;;;;;;;6178706;28;20056;-72
2022/11/27 01:47:35;;;;;;;81.75;34.40;;;;;;;;;;6179054;28;20030;-72
2022/11/27 01:50:36;;;;;;;75.07;32.05;;;;;;;;;;6194480;28;20030;-72
2022/11/27 01:53:36;;;;;;;76.57;31.00;;;;;;;;;;6195369;28;20120;-73
2022/11/27 01:56:38;;;;;;;65.33;29.57;;;;;;;;;;6195172;28;20030;-73
2022/11/27 01:59:39;;;;;;;63.88;26.05;;;;;;;;;;6196768;28;20101;-73
2022/11/27 02:02:41;;;;;;;78.67;26.93;;;;;;;;;;6196613;28;20426;-73
2022/11/27 02:05:41;;;;;;;69.10;26.40;;;;;;;;;;6195108;28;20568;-73
2022/11/27 02:08:41;;;;;;;77.83;28.43;;;;;;;;;;6195251;28;20030;-73
2022/11/27 02:11:57;;;;;;;66.20;26.03;;;;;;;;;;6195293;28;20021;-73
2022/11/27 02:15:19;;;;;;;71.18;28.08;;;;;;;;;;6193334;28;20492;-72
2022/11/27 02:18:19;;;;;;;65.53;28.02;;;;;;;;;;6177251;28;20026;-72
2022/11/27 02:21:20;;;;;;;60.42;24.58;;;;;;;;;;6193394;28;20048;-73
2022/11/27 02:24:20;;;;;;;59.80;28.57;;;;;;;;;;6193518;28;20034;-72
2022/11/27 02:27:36;;;;;;;70.38;27.98;;;;;;;;;;6194943;28;20031;-74
2022/11/27 02:30:40;;;;;;;67.68;27.13;;;;;;;;;;6196249;28;20034;-72
2022/11/27 02:33:42;;;;;;;70.18;29.70;;;;;;;;;;6196102;28;20064;-73
2022/11/27 02:36:44;;;;;;;54.50;25.35;;;;;;;;;;6195851;28;20023;-72
2022/11/27 02:39:53;;;;;;;67.90;26.73;;;;;;;;;;6196073;28;20010;-73
2022/11/27 02:43:03;;;;;;;60.53;26.17;;;;;;;;;;6196915;28;20022;-72
2022/11/27 02:46:05;;;;;;;62.15;24.13;;;;;;;;;;6193625;28;20070;-73
2022/11/27 02:49:05;;;;;;;;;;;;;;;;;;6177744;28;20026;-73
2022/11/27 02:52:06;;;;;;;60.35;24.30;;;;;;;;;;6178965;28;19937;-73
2022/11/27 02:55:10;;;;;;;61.50;26.10;;;;;;;;;;6195983;28;20030;-73
2022/11/27 02:58:13;;;;;;;71.47;28.10;;;;;;;;;;6195637;28;20034;-73
2022/11/27 03:01:14;;;;;;;75.55;29.05;;;;;;;;;;6193575;28;20022;-73
2022/11/27 03:04:20;;;;;;;70.72;30.10;;;;;;;;;;6195675;28;20073;-74
2022/11/27 03:07:40;;;;;;;78.95;33.33;;;;;;;;;;6194813;28;20422;-73
2022/11/27 03:10:50;;;;;;;67.63;29.48;;;;;;;;;;6194483;28;20030;-73
2022/11/27 03:13:54;;;;;;;70.28;27.50;;;;;;;;;;6195391;28;20497;-74
2022/11/27 03:17:07;;;;;;;68.93;31.25;;;;;;;;;;6177734;28;20179;-73
2022/11/27 03:20:10;;;;;;;80.65;30.70;;;;;;;;;;6192356;28;20033;-74
2022/11/27 03:23:11;;;;;;;68.30;30.10;;;;;;;;;;6193448;28;20018;-72
2022/11/27 03:26:11;;;;;;;64.57;29.63;;;;;;;;;;6177241;28;20029;-73
2022/11/27 03:29:13;;;;;;;71.10;26.63;;;;;;;;;;6194580;28;20204;-73
2022/11/27 03:32:13;;;;;;;62.22;24.38;;;;;;;;;;6194305;28;20054;-73
2022/11/27 03:35:16;;;;;;;68.77;28.27;;;;;;;;;;6194334;28;20030;-73
2022/11/27 03:38:16;;;;;;;59.75;26.67;;;;;;;;;;6194956;28;20027;-73
2022/11/27 03:41:33;;;;;;;62.70;26.97;;;;;;;;;;6195228;28;20068;-72
2022/11/27 03:44:39;;;;;;;64.35;24.95;;;;;;;;;;6194416;28;20034;-72
2022/11/27 03:47:51;;;;;;;75.55;28.40;;;;;;;;;;6194589;28;20453;-73
2022/11/27 03:50:51;;;;;;;;;;;;;;;;;;6197648;28;20077;-73
2022/11/27 03:53:58;;;;;;;60.08;21.92;;;;;;;;;;6199234;28;19910;-73
2022/11/27 03:57:01;;;;;;;60.88;25.98;;;;;;;;;;6199529;28;20049;-73
2022/11/27 04:00:03;;;;;;;67.38;31.45;;;;;;;;;;6199310;28;20026;-74
2022/11/27 04:03:04;;;;;;;58.70;28.50;;;;;;;;;;6199517;28;20024;-73
2022/11/27 04:06:04;;;;;;;67.03;28.50;;;;;;;;;;6199523;28;20038;-72
2022/11/27 04:09:04;;;;;;;68.17;29.93;;;;;;;;;;6199389;28;20018;-74
2022/11/27 04:12:04;;;;;;;59.23;26.80;;;;;;;;;;6200316;28;20022;-73
2022/11/27 04:15:05;;;;;;;63.20;24.67;;;;;;;;;;6199515;28;20408;-73
2022/11/27 04:18:05;;;;;;;67.50;30.87;;;;;;;;;;6199542;28;20018;-72
2022/11/27 04:21:05;;;;;;;71.00;29.33;;;;;;;;;;6198968;28;20021;-72
2022/11/27 04:24:06;;;;;;;65.97;28.70;;;;;;;;;;6199924;28;20076;-74
2022/11/27 04:27:06;;;;;;;68.87;27.50;;;;;;;;;;6197418;28;20022;-72
2022/11/27 04:30:06;;;;;;;73.50;29.00;;;;;;;;;;6198017;28;20105;-73
2022/11/27 04:33:07;;;;;;;64.27;29.30;;;;;;;;;;6198219;28;20022;-74
2022/11/27 04:36:07;;;;;;;61.77;24.13;;;;;;;;;;6198483;28;20018;-73
2022/11/27 04:39:07;;;;;;;69.17;29.60;;;;;;;;;;6198195;28;20034;-73
2022/11/27 04:42:07;;;;;;;71.30;30.67;;;;;;;;;;6174222;28;20022;-73
2022/11/27 04:45:08;;;;;;;73.03;30.80;;;;;;;;;;6196730;28;20057;-73
2022/11/27 04:48:08;;;;;;;84.23;33.37;;;;;;;;;;6198018;28;20022;-74
2022/11/27 04:51:08;;;;;;;71.00;29.05;;;;;;;;;;6198646;28;20030;-73
2022/11/27 04:54:09;;;;;;;68.30;25.13;;;;;;;;;;6180796;28;20057;-73
2022/11/27 04:57:09;;;;;;;77.03;28.00;;;;;;;;;;6197640;28;20029;-73
2022/11/27 05:00:09;;;;;;;71.45;27.85;;;;;;;;;;6198486;28;20089;-73
2022/11/27 05:03:10;;;;;;;66.30;28.03;;;;;;;;;;6196137;28;20030;-74
2022/11/27 05:06:11;;;;;;;57.30;23.57;;;;;;;;;;6178706;28;20165;-73
2022/11/27 05:09:11;;;;;;;70.25;28.17;;;;;;;;;;6197192;28;20368;-73
2022/11/27 05:12:11;;;;;;;71.03;28.17;;;;;;;;;;6198369;28;20029;-74
2022/11/27 05:15:11;;;;;;;67.87;28.67;;;;;;;;;;6197384;28;20386;-73
2022/11/27 05:18:11;;;;;;;75.53;31.65;;;;;;;;;;6196936;28;20447;-74
2022/11/27 05:21:11;;;;;;;72.30;30.30;;;;;;;;;;6197120;28;20023;-74
2022/11/27 05:24:12;;;;;;;69.97;30.67;;;;;;;;;;6197924;28;20581;-72
2022/11/27 05:27:12;;;;;;;71.90;30.10;;;;;;;;;;6196916;28;20088;-73
2022/11/27 05:30:13;;;;;;;72.03;30.90;;;;;;;;;;6197005;28;20522;-73
2022/11/27 05:33:13;;;;;;;64.80;29.30;;;;;;;;;;6197981;28;20466;-73
2022/11/27 05:36:14;;;;;;;51.23;22.00;;;;;;;;;;6197189;28;20489;-73
2022/11/27 05:39:14;;;;;;;73.37;30.30;;;;;;;;;;6179609;28;20018;-73
2022/11/27 05:42:14;;;;;;;77.60;31.10;;;;;;;;;;6197582;28;20481;-73
2022/11/27 05:45:14;;;;;;;84.73;31.13;;;;;;;;;;6198289;28;20026;-73
2022/11/27 05:48:14;;;;;;;71.37;29.03;;;;;;;;;;6196780;28;20441;-73
2022/11/27 05:51:15;;;;;;;74.05;31.80;;;;;;;;;;6196458;28;20113;-73
2022/11/27 05:54:15;;;;;;;73.33;31.10;;;;;;;;;;6196553;28;20033;-73
2022/11/27 05:57:16;;;;;;;73.97;32.07;;;;;;;;;;6196592;28;20101;-73
2022/11/27 06:00:16;;;;;;;79.60;32.57;;;;;;;;;;6197081;28;20026;-73
2022/11/27 06:03:16;;;;;;;80.07;35.83;;;;;;;;;;6197581;28;20022;-73
2022/11/27 06:06:17;;;;;;;84.53;32.50;;;;;;;;;;6197062;28;20455;-73
2022/11/27 06:09:17;;;;;;;89.15;41.08;;;;;;;;;;6195232;28;20026;-73
2022/11/27 06:12:18;;;;;;;91.93;39.88;;;;;;;;;;6196495;28;20029;-74
2022/11/27 06:15:18;;;;;;;95.43;38.87;;;;;;;;;;6196674;28;20489;-73
2022/11/27 06:18:18;;;;;;;86.07;34.35;;;;;;;;;;6178172;28;20015;-73
2022/11/27 06:21:19;;;;;;;87.95;34.80;;;;;;;;;;6177301;28;20014;-73
2022/11/27 06:24:19;;;;;;;84.63;37.10;;;;;;;;;;6178476;28;20018;-73
2022/11/27 06:27:19;;;;;;;83.47;35.63;;;;;;;;;;6197073;28;20482;-73
2022/11/27 06:30:19;;;;;;;85.90;32.73;;;;;;;;;;6195725;28;20786;-73
2022/11/27 06:33:20;;;;;;;103.87;39.93;;;;;;;;;;6195441;28;20117;-73
2022/11/27 06:36:20;;;;;;;83.80;38.88;;;;;;;;;;6194081;28;20073;-73
2022/11/27 06:39:21;;;;;;;91.03;37.13;;;;;;;;;;6195846;28;20505;-73
2022/11/27 06:42:21;;;;;;;77.70;30.73;;;;;;;;;;6195469;28;20093;-73
2022/11/27 06:45:21;;;;;;;76.43;30.30;;;;;;;;;;6195074;28;20033;-74
2022/11/27 06:48:21;;;;;;;75.50;29.60;;;;;;;;;;6196430;28;20578;-73
2022/11/27 06:51:23;;;;;;;74.85;29.98;;;;;;;;;;6177730;28;20030;-73
2022/11/27 06:54:23;;;;;;;63.25;27.67;;;;;;;;;;6195643;28;20018;-73
2022/11/27 06:57:23;;;;;;;60.97;29.37;;;;;;;;;;6196667;28;20022;-73
2022/11/27 07:00:23;;;;;;;76.00;27.93;;;;;;;;;;6191897;28;20120;-73
2022/11/27 07:03:24;;;;;;;72.38;30.17;;;;;;;;;;6197762;28;20026;-73
2022/11/27 07:06:25;;;;;;;83.90;30.63;;;;;;;;;;6196540;28;20465;-73
2022/11/27 07:09:25;;;;;;;76.90;32.50;;;;;;;;;;6195770;28;20028;-73
2022/11/27 07:12:26;;;;;;;75.38;29.85;;;;;;;;;;6194886;28;20062;-73
2022/11/27 07:15:26;;;;;;;94.03;36.47;;;;;;;;;;6173613;28;20031;-73
2022/11/27 07:18:26;;;;;;;66.40;31.00;;;;;;;;;;6174983;28;20117;-73
2022/11/27 07:21:27;;;;;;;74.80;37.30;;;;;;;;;;6191973;28;20018;-73
2022/11/27 07:24:27;;;;;;;84.43;36.60;;;;;;;;;;6175151;28;20113;-73
2022/11/27 07:27:27;;;;;;;73.63;32.87;;;;;;;;;;6197029;28;20374;-73
2022/11/27 07:30:27;;;;;;;78.65;35.17;;;;;;;;;;6197686;28;20030;-73
2022/11/27 07:33:28;;;;;;;88.20;36.63;;;;;;;;;;6197949;28;20045;-73
2022/11/27 07:36:29;;;;;;;92.70;44.43;;;;;;;;;;6199949;28;20029;-72
2022/11/27 07:39:29;;;;;;;96.38;45.13;;;;;;;;;;6197731;28;20026;-73
2022/11/27 07:42:29;;;;;;;71.23;35.50;;;;;;;;;;6197164;28;20108;-72
2022/11/27 07:45:29;;;;;;;101.67;48.00;;;;;;;;;;6198146;28;20093;-73
2022/11/27 07:48:29;;;;;;;93.97;43.47;;;;;;;;;;6198159;28;20440;-72
2022/11/27 07:51:30;;;;;;;76.83;36.40;;;;;;;;;;6198059;28;20045;-72
2022/11/27 07:54:30;;;;;;;64.07;31.73;;;;;;;;;;6178896;28;20030;-72
2022/11/27 07:57:30;;;;;;;75.78;36.00;;;;;;;;;;6198278;28;20022;-73
2022/11/27 08:00:30;;;;;;;68.45;34.60;;;;;;;;;;6198965;28;20101;-72
2022/11/27 08:03:30;;;;;;;73.87;36.20;;;;;;;;;;6180832;28;20029;-72
2022/11/27 08:06:31;;;;;;;83.22;39.80;;;;;;;;;;6197741;28;20533;-73
2022/11/27 08:09:31;;;;;;;124.10;59.60;;;;;;;;;;6196597;28;20025;-73
2022/11/27 08:12:31;;;;;;;85.18;41.50;;;;;;;;;;6196475;28;20057;-72
2022/11/27 08:15:31;;;;;;;74.35;37.67;;;;;;;;;;6177884;28;20053;-75
2022/11/27 08:18:32;;;;;;;79.93;41.03;;;;;;;;;;6198469;28;20101;-73
2022/11/27 08:21:32;;;;;;;78.63;38.50;;;;;;;;;;6197394;28;20025;-73
2022/11/27 08:24:32;;;;;;;67.87;37.07;;;;;;;;;;6181022;28;20022;-74
2022/11/27 08:27:32;;;;;;;71.20;35.17;;;;;;;;;;6182008;28;20026;-73
2022/11/27 08:30:32;;;;;;;69.85;38.20;;;;;;;;;;6199153;28;20022;-73
2022/11/27 08:33:33;;;;;;;75.43;41.17;;;;;;;;;;6197042;28;20113;-75
2022/11/27 08:36:33;;;;;;;78.85;40.78;;;;;;;;;;6181582;28;20014;-73
2022/11/27 08:39:33;;;;;;;68.17;33.97;;;;;;;;;;6197446;28;20069;-73
2022/11/27 08:42:33;;;;;;;80.67;38.77;;;;;;;;;;6197346;28;20022;-72
2022/11/27 08:45:36;;;;;;;89.30;42.87;;;;;;;;;;6196259;28;20048;-72
2022/11/27 08:48:36;;;;;;;88.45;43.80;;;;;;;;;;6181090;28;20022;-73
2022/11/27 08:51:37;;;;;;;79.97;40.80;;;;;;;;;;6200059;28;20023;-75
2022/11/27 08:54:37;;;;;;;82.77;42.53;;;;;;;;;;6199667;28;20026;-73
2022/11/27 08:57:37;;;;;;;87.13;41.63;;;;;;;;;;6199515;28;20093;-73
2022/11/27 09:00:38;;;;;;;78.93;39.90;;;;;;;;;;6198032;28;20014;-74
2022/11/27 09:03:38;;;;;;;81.47;39.60;;;;;;;;;;6182123;28;20018;-74
2022/11/27 09:06:39;;;;;;;62.63;36.87;;;;;;;;;;6182285;28;20064;-74
2022/11/27 09:09:39;;;;;;;80.60;42.00;;;;;;;;;;6198190;28;20097;-74
2022/11/27 09:12:40;;;;;;;74.72;41.97;;;;;;;;;;6194350;28;20030;-75
2022/11/27 09:15:40;;;;;;;81.50;39.13;;;;;;;;;;6199999;28;20117;-74
2022/11/27 09:18:42;;;;;;;88.93;42.47;;;;;;;;;;6198541;28;20022;-75
2022/11/27 09:21:42;;;;;;;87.00;42.97;;;;;;;;;;6198437;28;20109;-75
2022/11/27 09:24:43;;;;;;;74.83;40.87;;;;;;;;;;6178202;28;20393;-75
2022/11/27 09:27:43;;;;;;;73.28;38.70;;;;;;;;;;6194525;28;20053;-75
2022/11/27 09:30:43;;;;;;;56.60;31.60;;;;;;;;;;6194775;28;20018;-75
2022/11/27 09:33:44;;;;;;;77.00;38.83;;;;;;;;;;6195249;28;20030;-75
2022/11/27 09:36:44;;;;;;;74.83;36.43;;;;;;;;;;6196668;28;20014;-74
2022/11/27 09:39:44;;;;;;;63.28;33.20;;;;;;;;;;6195671;28;20022;-73
2022/11/27 09:42:48;;;;;;;65.45;34.85;;;;;;;;;;6178605;28;20426;-73
2022/11/27 09:45:53;;;;;;;59.08;32.80;;;;;;;;;;6196562;28;20029;-74
2022/11/27 09:48:54;;;;;;;60.95;33.17;;;;;;;;;;6173319;28;20191;-74
2022/11/27 09:52:01;;;;;;;48.60;27.48;;;;;;;;;;6175518;28;20050;-74
2022/11/27 09:55:24;;;;;;;58.17;31.10;;;;;;;;;;6172986;28;20033;-74
2022/11/27 09:58:24;;;;;;;46.08;26.35;;;;;;;;;;6185713;28;20035;-74
2022/11/27 10:01:26;;;;;;;40.53;24.67;;;;;;;;;;6194628;28;20033;-75
2022/11/27 10:04:26;;;;;;;51.17;25.60;;;;;;;;;;6192113;28;20057;-73
2022/11/27 10:07:45;;;;;;;42.50;22.15;;;;;;;;;;6194008;28;20050;-73
2022/11/27 10:10:55;;;;;;;42.25;23.45;;;;;;;;;;6193289;28;20116;-73
2022/11/27 10:14:02;;;;;;;41.13;23.45;;;;;;;;;;6192306;28;20026;-73
2022/11/27 10:17:21;;;;;;;51.08;27.90;;;;;;;;;;6190756;28;20069;-73
2022/11/27 10:20:30;;;;;;;50.42;28.02;;;;;;;;;;6194083;28;20031;-73
2022/11/27 10:23:51;;;;;;;48.08;25.63;;;;;;;;;;6199404;28;20040;-74
2022/11/27 10:26:53;;;;;;;43.88;24.98;;;;;;;;;;6194964;28;20042;-74
2022/11/27 10:29:53;;;;;;;;;;;;;;;;;;6196455;28;20030;-73
2022/11/27 10:32:54;;;;;;;42.60;25.08;;;;;;;;;;6178303;28;19960;-73
2022/11/27 10:35:54;;;;;;;46.33;25.13;;;;;;;;;;6193290;28;20360;-73
2022/11/27 10:38:56;;;;;;;41.33;22.77;;;;;;;;;;6196244;28;20026;-73
2022/11/27 10:42:01;;;;;;;48.53;27.25;;;;;;;;;;6177557;28;20510;-74
2022/11/27 10:45:16;;;;;;;42.05;24.08;;;;;;;;;;6197055;28;20030;-73
2022/11/27 10:48:16;;;;;;;45.33;25.23;;;;;;;;;;6192617;28;20498;-73
2022/11/27 10:51:18;;;;;;;45.03;24.90;;;;;;;;;;6192756;28;20026;-73
2022/11/27 10:54:37;;;;;;;39.30;22.83;;;;;;;;;;6192637;28;20117;-74
2022/11/27 10:58:01;;;;;;;39.78;21.35;;;;;;;;;;6196069;28;20023;-74
2022/11/27 11:01:06;;;;;;;41.80;22.70;;;;;;;;;;6197979;28;20036;-73
2022/11/27 11:04:08;;;;;;;40.88;23.85;;;;;;;;;;6200731;28;20576;-73
2022/11/27 11:07:25;;;;;;;47.35;23.98;;;;;;;;;;6183530;28;20062;-73
2022/11/27 11:10:30;;;;;;;40.75;21.33;;;;;;;;;;6184158;28;20029;-74
2022/11/27 11:13:51;;;;;;;42.40;21.33;;;;;;;;;;6184765;28;20121;-73
2022/11/27 11:16:51;;;;;;;46.63;25.85;;;;;;;;;;6182448;28;20472;-73
2022/11/27 11:19:52;;;;;;;42.93;24.07;;;;;;;;;;6200546;28;20033;-72
2022/11/27 11:22:52;;;;;;;46.97;24.80;;;;;;;;;;6183232;28;20066;-73
2022/11/27 11:25:54;;;;;;;34.63;19.73;;;;;;;;;;6200661;28;20446;-73
2022/11/27 11:28:55;;;;;;;;;;;;;;;;;;6201305;28;20022;-73
2022/11/27 11:31:56;;;;;;;43.75;21.42;;;;;;;;;;6197910;28;19921;-74
2022/11/27 11:34:58;;;;;;;41.08;23.75;;;;;;;;;;6180979;28;20314;-74
2022/11/27 11:38:00;;;;;;;40.33;21.55;;;;;;;;;;6179915;28;20030;-74
2022/11/27 11:41:02;;;;;;;36.45;20.85;;;;;;;;;;6194293;28;20418;-73
2022/11/27 11:44:03;;;;;;;39.83;22.75;;;;;;;;;;6196282;28;20546;-73
2022/11/27 11:47:03;;;;;;;44.40;24.37;;;;;;;;;;6196829;28;20028;-74
2022/11/27 11:50:04;;;;;;;35.47;20.03;;;;;;;;;;6178774;28;20014;-74
2022/11/27 11:53:11;;;;;;;30.40;19.33;;;;;;;;;;6195197;28;20022;-74
2022/11/27 11:56:11;;;;;;;47.72;23.88;;;;;;;;;;6194370;28;20042;-73
2022/11/27 11:59:19;;;;;;;33.03;17.97;;;;;;;;;;6196612;28;20080;-74
2022/11/27 12:02:39;;;;;;;28.15;14.68;;;;;;;;;;6196277;28;20026;-74
2022/11/27 12:06:00;;;;;;;30.02;18.35;;;;;;;;;;6197993;28;20042;-74
2022/11/27 12:09:14;;;;;;;25.25;13.60;;;;;;;;;;6194960;28;20062;-74
2022/11/27 12:12:34;;;;;;;28.33;16.20;;;;;;;;;;6194254;28;20028;-74
2022/11/27 12:15:38;;;;;;;24.70;14.45;;;;;;;;;;6197097;28;20029;-74
2022/11/27 12:18:51;;;;;;;26.00;15.05;;;;;;;;;;6194429;28;20022;-74
2022/11/27 12:22:11;;;;;;;27.13;12.68;;;;;;;;;;6196193;28;20050;-74
2022/11/27 12:25:20;;;;;;;21.67;13.43;;;;;;;;;;6163808;28;20109;-74
2022/11/27 12:28:36;;;;;;;23.25;12.48;;;;;;;;;;6194600;28;20406;-74
2022/11/27 12:31:37;;;;;;;24.67;12.82;;;;;;;;;;6191224;28;20049;-74
2022/11/27 12:34:37;;;;;;;22.00;13.18;;;;;;;;;;6198433;28;20036;-75
2022/11/27 12:37:40;;;;;;;23.95;12.95;;;;;;;;;;6196778;28;20434;-74
2022/11/27 12:40:48;;;;;;;23.17;13.25;;;;;;;;;;6195760;28;20116;-74
2022/11/27 12:43:51;;;;;;;21.33;11.45;;;;;;;;;;6179243;28;20027;-74
2022/11/27 12:46:58;;;;;;;19.40;12.05;;;;;;;;;;6197453;28;20117;-73
2022/11/27 12:50:02;;;;;;;19.33;11.80;;;;;;;;;;6192021;28;20030;-74
2022/11/27 12:53:18;;;;;;;21.17;12.70;;;;;;;;;;6193390;28;20034;-75
2022/11/27 12:56:23;;;;;;;30.48;18.02;;;;;;;;;;6175551;28;20078;-74
2022/11/27 12:59:32;;;;;;;29.95;15.20;;;;;;;;;;6195236;28;20019;-74
2022/11/27 13:02:39;;;;;;;22.63;12.55;;;;;;;;;;6196645;28;20030;-74
2022/11/27 13:05:47;;;;;;;23.42;14.02;;;;;;;;;;6195581;28;20018;-74
2022/11/27 13:09:09;;;;;;;21.58;11.80;;;;;;;;;;6197079;28;20401;-74
2022/11/27 13:12:12;;;;;;;34.53;19.27;;;;;;;;;;6195318;28;20026;-74
2022/11/27 13:15:24;;;;;;;26.30;13.57;;;;;;;;;;6196369;28;20023;-74
2022/11/27 13:18:25;;;;;;;22.88;14.05;;;;;;;;;;6195688;28;20014;-74
2022/11/27 13:21:26;;;;;;;28.03;14.80;;;;;;;;;;6195217;28;20021;-74
2022/11/27 13:24:27;;;;;;;26.50;14.35;;;;;;;;;;6195094;28;20019;-74
2022/11/27 13:27:29;;;;;;;21.27;13.03;;;;;;;;;;6177871;28;20065;-73
2022/11/27 13:30:32;;;;;;;21.50;11.13;;;;;;;;;;6176396;28;20557;-73
2022/11/27 13:33:37;;;;;;;23.48;12.73;;;;;;;;;;6193039;28;20113;-73
2022/11/27 13:36:39;;;;;;;21.80;12.27;;;;;;;;;;6188886;28;20029;-74
2022/11/27 13:39:40;;;;;;;20.45;12.05;;;;;;;;;;6194634;28;20030;-74
2022/11/27 13:42:44;;;;;;;23.63;13.48;;;;;;;;;;6195310;28;20029;-73
2022/11/27 13:45:44;;;;;;;23.65;13.23;;;;;;;;;;6195907;28;20029;-74
2022/11/27 13:48:57;;;;;;;23.23;11.13;;;;;;;;;;6179235;28;20018;-74
2022/11/27 13:52:17;;;;;;;21.40;11.30;;;;;;;;;;6192203;28;20030;-71
2022/11/27 13:55:22;;;;;;;22.65;12.65;;;;;;;;;;6194117;28;20040;-74
2022/11/27 13:58:32;;;;;;;23.27;13.15;;;;;;;;;;6195849;28;20033;-73
2022/11/27 14:01:32;;;;;;;24.40;13.13;;;;;;;;;;6194846;28;20022;-74
2022/11/27 14:04:32;;;;;;;23.13;12.38;;;;;;;;;;6196047;28;20041;-74
2022/11/27 14:07:40;;;;;;;22.50;12.20;;;;;;;;;;6195465;28;20055;-74
2022/11/27 14:10:47;;;;;;;23.33;12.98;;;;;;;;;;6197408;28;20118;-74
2022/11/27 14:13:49;;;;;;;19.65;11.60;;;;;;;;;;6198713;28;20033;-73
2022/11/27 14:16:49;;;;;;;;;;;;;;;;;;6192870;28;20060;-74
2022/11/27 14:19:58;;;;;;;26.95;13.00;;;;;;;;;;6192483;28;19906;-74
2022/11/27 14:22:58;;;;;;;19.88;11.85;;;;;;;;;;6194108;28;20699;-74
2022/11/27 14:26:03;;;;;;;21.57;13.33;;;;;;;;;;6177682;28;20030;-75
2022/11/27 14:29:10;;;;;;;21.95;13.32;;;;;;;;;;6193626;28;20030;-74
2022/11/27 14:32:12;;;;;;;22.30;14.10;;;;;;;;;;6194267;28;20025;-74
2022/11/27 14:35:19;;;;;;;22.42;12.55;;;;;;;;;;6192923;28;20096;-73
2022/11/27 14:38:20;;;;;;;26.25;14.25;;;;;;;;;;6176592;28;20292;-73
2022/11/27 14:41:22;;;;;;;33.40;14.13;;;;;;;;;;6191718;28;20570;-73
2022/11/27 14:44:22;;;;;;;;;;;;;;;;;;6175645;28;20444;-74
2022/11/27 14:47:22;;;;;;;21.45;12.63;;;;;;;;;;6192791;28;20288;-74
2022/11/27 14:50:22;;;;;;;26.05;13.43;;;;;;;;;;6193298;28;20022;-73
2022/11/27 14:53:25;;;;;;;21.33;13.50;;;;;;;;;;6174830;28;20124;-74
2022/11/27 14:56:27;;;;;;;28.58;15.65;;;;;;;;;;6194001;28;20053;-74
2022/11/27 14:59:28;;;;;;;24.92;14.10;;;;;;;;;;6193934;28;20057;-74
2022/11/27 15:02:30;;;;;;;29.87;16.23;;;;;;;;;;6177170;28;20025;-73
2022/11/27 15:05:30;;;;;;;35.63;20.10;;;;;;;;;;6193683;28;20054;-73
2022/11/27 15:08:32;;;;;;;66.83;34.30;;;;;;;;;;6174840;28;20050;-74
2022/11/27 15:11:33;;;;;;;71.18;40.50;;;;;;;;;;6189149;28;20118;-74
2022/11/27 15:14:34;;;;;;;86.90;47.03;;;;;;;;;;6192364;28;20449;-74
2022/11/27 15:17:36;;;;;;;64.43;32.83;;;;;;;;;;6193182;28;20026;-73
2022/11/27 15:20:38;;;;;;;40.03;26.95;;;;;;;;;;6192513;28;20022;-73
2022/11/27 15:23:43;;;;;;;36.05;20.55;;;;;;;;;;6192802;28;20025;-73
2022/11/27 15:26:44;;;;;;;26.40;15.10;;;;;;;;;;6194138;28;20395;-74
2022/11/27 15:29:58;;;;;;;28.17;14.73;;;;;;;;;;6175742;28;20167;-74
2022/11/27 15:33:00;;;;;;;26.20;14.50;;;;;;;;;;6191979;28;20030;-74
2022/11/27 15:36:13;;;;;;;27.85;16.23;;;;;;;;;;6193027;28;20024;-73
2022/11/27 15:39:19;;;;;;;29.20;14.88;;;;;;;;;;6192402;28;20015;-74
2022/11/27 15:42:19;;;;;;;31.17;16.42;;;;;;;;;;6193453;28;20014;-74
2022/11/27 15:45:20;;;;;;;24.17;14.27;;;;;;;;;;6194170;28;20033;-73
2022/11/27 15:48:21;;;;;;;28.67;14.90;;;;;;;;;;6180346;28;20077;-73
2022/11/27 15:51:21;;;;;;;29.33;16.20;;;;;;;;;;6197502;28;20027;-73
2022/11/27 15:54:22;;;;;;;31.30;15.63;;;;;;;;;;6180269;28;20022;-74
2022/11/27 15:57:23;;;;;;;32.53;17.13;;;;;;;;;;6198674;28;20098;-74
2022/11/27 16:00:24;;;;;;;26.77;16.20;;;;;;;;;;6197940;28;20636;-74
2022/11/27 16:03:25;;;;;;;34.67;16.80;;;;;;;;;;6198065;28;20108;-73
2022/11/27 16:06:25;;;;;;;33.57;17.83;;;;;;;;;;6196900;28;20076;-73
2022/11/27 16:09:25;;;;;;;32.92;18.65;;;;;;;;;;6197450;28;20042;-73
2022/11/27 16:12:25;;;;;;;30.97;15.87;;;;;;;;;;6197783;28;20032;-73
2022/11/27 16:15:25;;;;;;;25.15;15.15;;;;;;;;;;6197786;28;20022;-73
2022/11/27 16:18:26;;;;;;;28.92;16.77;;;;;;;;;;6195529;28;20046;-74
2022/11/27 16:21:27;;;;;;;28.17;17.13;;;;;;;;;;6196948;28;20007;-74
2022/11/27 16:24:27;;;;;;;26.87;15.57;;;;;;;;;;6197142;28;20463;-73
2022/11/27 16:27:27;;;;;;;30.10;16.43;;;;;;;;;;6195853;28;20025;-73
2022/11/27 16:30:27;;;;;;;35.73;20.50;;;;;;;;;;6197212;28;20018;-73
2022/11/27 16:33:28;;;;;;;30.88;17.77;;;;;;;;;;6197464;28;20479;-74
2022/11/27 16:36:28;;;;;;;31.23;18.87;;;;;;;;;;6197308;28;20019;-73
2022/11/27 16:39:28;;;;;;;35.90;19.66;;;;;;;;;;6197060;28;20068;-74
2022/11/27 16:42:28;;;;;;;35.10;21.43;;;;;;;;;;6197293;28;20022;-74
2022/11/27 16:45:29;;;;;;;28.40;16.98;;;;;;;;;;6196524;28;20022;-74
2022/11/27 16:48:29;;;;;;;32.05;17.30;;;;;;;;;;6171303;28;20129;-74
2022/11/27 16:51:32;;;;;;;33.53;20.13;;;;;;;;;;6197255;28;20033;-73
2022/11/27 16:54:32;;;;;;;40.70;22.08;;;;;;;;;;6197594;28;20529;-74
2022/11/27 16:57:33;;;;;;;39.35;21.38;;;;;;;;;;6193715;28;20506;-73
2022/11/27 17:00:33;;;;;;;43.60;23.10;;;;;;;;;;6195524;28;20018;-74
2022/11/27 17:03:33;;;;;;;36.85;23.73;;;;;;;;;;6196171;28;20011;-73
2022/11/27 17:06:34;;;;;;;37.13;20.97;;;;;;;;;;6193636;28;20042;-74
2022/11/27 17:09:34;;;;;;;43.17;22.00;;;;;;;;;;6196037;28;20051;-74
2022/11/27 17:12:35;;;;;;;41.87;23.70;;;;;;;;;;6195702;28;20039;-74
2022/11/27 17:15:35;;;;;;;49.80;26.00;;;;;;;;;;6196609;28;20015;-74
2022/11/27 17:18:36;;;;;;;52.97;30.10;;;;;;;;;;6191756;28;20022;-74
2022/11/27 17:21:37;;;;;;;62.78;35.80;;;;;;;;;;6191363;28;20371;-74
2022/11/27 17:24:37;;;;;;;73.30;41.08;;;;;;;;;;6192125;28;20057;-73
2022/11/27 17:27:37;;;;;;;93.30;48.23;;;;;;;;;;6193044;28;20045;-73
2022/11/27 17:30:37;;;;;;;71.77;43.17;;;;;;;;;;6195564;28;20517;-72
2022/11/27 17:33:38;;;;;;;105.27;55.70;;;;;;;;;;6195237;28;20023;-71
2022/11/27 17:36:40;;;;;;;102.60;53.50;;;;;;;;;;6194005;28;20527;-73
2022/11/27 17:39:42;;;;;;;110.00;57.03;;;;;;;;;;6177372;28;20491;-73
2022/11/27 17:42:42;;;;;;;110.15;57.47;;;;;;;;;;6196982;28;20016;-74
2022/11/27 17:45:42;;;;;;;114.00;63.27;;;;;;;;;;6194716;28;20482;-73